createdAt,value
2019-02-25T00:01:48.199Z,4.80
2019-02-25T00:04:18.032Z,4.60
2019-02-25T00:10:38.343Z,4.70
2019-02-25T00:20:28.084Z,3.73
2019-02-25T00:45:15.349Z,4.67
2019-02-25T00:54:54.033Z,5.20
2019-02-25T01:22:28.390Z,4.70
2019-02-25T01:24:58.300Z,4.57
2019-02-25T01:27:28.767Z,4.50
2019-02-25T01:29:58.905Z,4.27
2019-02-25T01:36:19.955Z,5.00
2019-02-25T01:38:49.907Z,4.60
2019-02-25T01:46:15.809Z,4.87
2019-02-25T01:56:23.415Z,4.67
2019-02-25T02:30:45.097Z,4.72
2019-02-25T03:18:41.157Z,7.83
2019-02-25T03:38:02.243Z,8.35
2019-02-25T03:55:29.655Z,7.58
2019-02-25T03:57:59.664Z,6.78
2019-02-25T04:22:24.447Z,6.92
2019-02-25T04:56:17.633Z,8.10
2019-02-25T05:31:01.460Z,5.85
2019-02-25T05:33:31.419Z,6.30
2019-02-25T05:36:01.649Z,7.17
2019-02-25T05:41:57.888Z,7.70
2019-02-25T05:44:27.831Z,8.45
2019-02-25T05:46:57.841Z,8.68
2019-02-25T05:49:27.831Z,7.60
2019-02-25T05:51:57.851Z,8.43
2019-02-25T05:58:18.794Z,7.75
2019-02-25T06:00:48.912Z,7.53
2019-02-25T06:03:18.870Z,7.15
2019-02-25T06:40:06.899Z,7.72
2019-02-25T07:07:49.902Z,10.80
2019-02-25T07:17:53.145Z,10.43
2019-02-25T07:40:24.270Z,11.63
2019-02-25T08:51:23.725Z,8.50
2019-02-25T09:01:12.775Z,8.60
2019-02-25T09:11:02.610Z,7.03
2019-02-25T09:13:32.612Z,7.13
2019-02-25T09:16:02.503Z,7.13
2019-02-25T09:18:33.576Z,6.30
2019-02-25T09:21:04.297Z,6.90
2019-02-25T09:23:34.746Z,5.90
2019-02-25T09:26:04.822Z,6.43
2019-02-25T09:28:34.750Z,7.40
2019-02-25T09:34:55.794Z,7.00
2019-02-25T09:44:45.319Z,7.40
2019-02-25T09:47:15.235Z,6.00
2019-02-25T09:49:46.201Z,6.60
2019-02-25T10:05:58.554Z,4.17
2019-02-25T10:15:47.561Z,3.70
2019-02-25T11:03:00.993Z,3.10
2019-02-25T11:05:31.113Z,3.50
2019-02-25T11:08:03.732Z,3.43
2019-02-25T11:10:48.669Z,3.17
2019-02-25T11:13:19.176Z,2.80
2019-02-25T11:15:49.167Z,3.20
2019-02-25T11:39:42.159Z,2.77
2019-02-25T11:42:13.535Z,2.50
2019-02-25T11:44:43.721Z,2.93
2019-02-25T11:47:13.713Z,2.00
2019-02-25T11:49:43.652Z,2.10
2019-02-25T11:52:13.615Z,2.20
2019-02-25T11:54:43.597Z,1.50
2019-02-25T11:57:13.506Z,2.87
2019-02-25T11:59:43.510Z,2.37
2019-02-25T12:02:13.533Z,2.00
2019-02-25T12:04:43.720Z,1.83
2019-02-25T12:07:13.699Z,1.90
2019-02-25T12:09:43.630Z,1.83
2019-02-25T12:12:13.849Z,2.10
2019-02-25T12:14:43.890Z,2.77
2019-02-25T12:17:13.809Z,2.40
2019-02-25T12:19:43.773Z,2.83
2019-02-25T12:25:58.712Z,2.53
2019-02-25T12:28:28.836Z,2.47
2019-02-25T12:30:58.752Z,2.40
2019-02-25T12:33:28.658Z,2.50
2019-02-25T12:35:58.711Z,3.17
2019-02-25T12:42:20.354Z,4.90
2019-02-25T12:44:50.547Z,3.10
2019-02-25T12:47:20.527Z,2.20
2019-02-25T12:53:41.249Z,3.03
2019-02-25T12:56:11.230Z,2.70
2019-02-25T13:05:04.125Z,2.27
2019-02-25T13:07:34.031Z,2.83
2019-02-25T13:34:14.527Z,2.40
2019-02-25T13:36:45.232Z,2.20
2019-02-25T14:01:31.826Z,3.37
2019-02-25T14:04:01.779Z,3.00
2019-02-25T14:06:31.903Z,3.07
2019-02-25T14:09:01.815Z,2.60
2019-02-25T14:11:31.751Z,3.57
2019-02-25T14:17:53.142Z,2.10
2019-02-25T14:20:23.277Z,3.63
2019-02-25T14:22:53.190Z,4.10
2019-02-25T15:03:53.682Z,3.03
2019-02-25T15:13:43.757Z,2.40
2019-02-25T15:16:13.836Z,3.00
2019-02-25T15:18:43.783Z,4.07
2019-02-25T15:21:15.896Z,2.93
2019-02-25T15:23:46.432Z,2.73
2019-02-25T15:26:17.380Z,3.10
2019-02-25T15:28:51.640Z,2.50
2019-02-25T15:31:20.059Z,3.93
2019-02-25T15:37:35.519Z,2.00
2019-02-25T16:02:26.902Z,1.90
2019-02-25T16:14:29.634Z,2.33
2019-02-25T16:24:18.773Z,2.50
2019-02-25T16:26:48.939Z,1.90
2019-02-25T16:29:18.894Z,1.70
2019-02-25T16:31:50.907Z,1.80
2019-02-25T16:34:20.779Z,3.00
2019-02-25T16:36:52.021Z,2.80
2019-02-25T16:43:09.759Z,3.37
2019-02-25T16:45:40.180Z,2.13
2019-02-25T16:48:11.110Z,3.03
2019-02-25T16:50:42.850Z,3.57
2019-02-25T16:53:15.343Z,2.73
2019-02-25T16:55:46.436Z,2.70
2019-02-25T16:58:16.271Z,2.00
2019-02-25T17:00:46.257Z,2.27
2019-02-25T17:03:16.802Z,2.57
2019-02-25T17:05:47.789Z,1.97
2019-02-25T17:08:20.798Z,2.63
2019-02-25T17:10:51.921Z,4.77
2019-02-25T17:13:22.640Z,3.90
2019-02-25T17:15:52.822Z,2.80
2019-02-25T17:18:22.873Z,3.23
2019-02-25T17:20:52.865Z,3.40
2019-02-25T17:23:24.810Z,2.90
2019-02-25T17:25:54.625Z,5.60
2019-02-25T17:28:25.018Z,7.03
2019-02-25T17:30:56.349Z,7.67
2019-02-25T17:33:28.222Z,3.30
2019-02-25T17:35:58.047Z,3.80
2019-02-25T17:38:28.990Z,5.60
2019-02-25T17:41:01.180Z,5.30
2019-02-25T17:43:32.125Z,5.73
2019-02-25T17:46:05.117Z,3.70
2019-02-25T17:48:34.390Z,6.60
2019-02-25T17:51:04.469Z,8.60
2019-02-25T17:53:34.503Z,8.80
2019-02-25T17:56:04.563Z,8.47
2019-02-25T17:58:35.972Z,7.77
2019-02-25T18:01:07.968Z,14.57
2019-02-25T18:03:39.632Z,14.80
2019-02-25T18:06:10.040Z,12.87
2019-02-25T18:20:09.311Z,4.57
2019-02-25T18:22:39.556Z,4.57
2019-02-25T18:25:10.741Z,4.87
2019-02-25T18:31:32.637Z,7.57
2019-02-25T18:34:02.603Z,4.03
2019-02-25T18:36:33.219Z,4.80
2019-02-25T18:39:03.515Z,4.73
2019-02-25T18:41:34.317Z,4.60
2019-02-25T18:44:05.303Z,4.97
2019-02-25T18:50:29.117Z,5.07
2019-02-25T18:53:01.209Z,3.17
2019-02-25T18:55:33.956Z,4.47
2019-02-25T18:58:05.055Z,3.30
2019-02-25T19:00:40.159Z,4.37
2019-02-25T19:03:10.475Z,4.23
2019-02-25T19:05:41.064Z,4.00
2019-02-25T19:08:17.200Z,5.07
2019-02-25T19:10:48.587Z,4.00
2019-02-25T19:13:20.939Z,4.67
2019-02-25T19:15:53.122Z,5.13
2019-02-25T19:18:23.251Z,4.50
2019-02-25T19:20:53.256Z,7.40
2019-02-25T19:23:23.461Z,7.17
2019-02-25T19:25:53.597Z,7.77
2019-02-25T19:32:14.870Z,6.10
2019-02-25T19:34:44.928Z,4.40
2019-02-25T19:37:15.032Z,5.27
2019-02-25T19:43:30.026Z,6.37
2019-02-25T19:46:01.763Z,6.73
2019-02-25T20:28:50.584Z,10.10
2019-02-25T21:16:16.161Z,11.50
2019-02-25T22:20:26.196Z,11.83
2019-02-25T23:05:43.667Z,11.57
2019-02-25T23:08:15.631Z,13.00
2019-02-25T23:10:47.001Z,11.63
2019-02-25T23:24:39.781Z,9.57
2019-02-25T23:34:28.610Z,9.67
